Time;durP1;ratioP1;P1;durP2;ratioP2;P2;SDS_P1;SDS_P2;PMS_P1;PMS_P2;Temp;Humidity;BMP_temperature;BMP_pressure;BME280_temperature;BME280_humidity;BME280_pressure;Samples;Min_cycle;Max_cycle;Signal;HPM_P1;HPM_P2
2022/02/18 00:01:38;;;;;;;;;;;8.00;59.40;;;6.54;60.14;95832.25;4956093;28;19952;-63
2022/02/18 00:04:04;;;;;;;;;;;8.00;59.80;;;6.49;61.58;95826.72;4959041;28;19922;-63
2022/02/18 00:06:30;;;;;;;;;;;7.90;60.40;;;6.44;61.51;95835.06;4974986;28;20377;-63
2022/02/18 00:08:56;;;;;;;;;;;7.80;60.80;;;6.42;62.06;95831.00;4975311;28;19922;-63
2022/02/18 00:11:22;;;;;;;;;;;7.80;61.00;;;6.38;62.33;95814.03;4974204;28;20385;-63
2022/02/18 00:13:47;;;;;;;;;;;7.80;61.30;;;6.35;62.69;95819.59;4992696;28;19979;-63
2022/02/18 00:16:13;;;;;;;;;;;7.80;61.50;;;6.34;62.19;95812.75;4942753;28;20536;-63
2022/02/18 00:18:39;;;;;;;;;;;7.80;61.60;;;6.34;62.86;95810.97;4951621;28;19987;-63
2022/02/18 00:21:04;;;;;;;;;;;7.80;61.70;;;6.33;62.83;95813.72;4958178;28;19944;-63
2022/02/18 00:23:30;;;;;;;;;;;7.80;61.80;;;6.35;62.96;95820.41;4958915;28;19937;-63
2022/02/18 00:25:55;;;;;;;;;;;7.80;62.00;;;6.33;62.99;95811.91;4974517;28;19978;-63
2022/02/18 00:28:22;;;;;;;;;;;7.80;62.10;;;6.35;63.40;95811.78;4958432;28;19925;-63
2022/02/18 00:30:48;;;;;;;;;;;7.80;62.00;;;6.33;63.50;95826.78;4942853;28;19949;-63
2022/02/18 00:33:14;;;;;;;;;;;7.80;62.10;;;6.34;63.33;95812.75;4973809;28;19918;-63
2022/02/18 00:35:39;;;;;;;;;;;7.80;62.30;;;6.35;62.46;95811.78;4942434;28;19934;-63
2022/02/18 00:38:05;;;;;;;;;;;7.90;62.20;;;6.33;63.11;95798.03;4975621;28;19926;-62
2022/02/18 00:40:31;;;;;;;;;;;7.80;62.40;;;6.31;63.67;95800.81;4991751;28;19979;-63
2022/02/18 00:42:56;;;;;;;;;;;7.80;62.50;;;6.31;63.61;95802.63;5011446;23;20510;-66
2022/02/18 00:45:22;;;;;;;;;;;7.80;62.50;;;6.29;63.52;95794.16;4966413;28;19930;-66
2022/02/18 00:47:49;;;;;;;;;;;7.80;62.30;;;6.29;63.14;95788.91;4971845;28;20008;-66
2022/02/18 00:50:17;;;;;;;;;;;7.80;62.50;;;6.29;63.44;95788.91;4992684;28;20021;-66
2022/02/18 00:52:43;;;;;;;;;;;7.90;62.60;;;6.28;63.71;95795.13;4976410;28;19930;-67
2022/02/18 00:55:09;;;;;;;;;;;7.80;62.70;;;6.29;64.10;95810.63;4981030;28;20020;-69
2022/02/18 00:57:35;;;;;;;;;;;7.90;62.40;;;6.30;63.61;95816.66;4969576;28;19926;-66
2022/02/18 01:00:03;;;;;;;;;;;7.90;62.50;;;6.29;63.36;95815.84;4988024;28;19926;-66
2022/02/18 01:02:29;;;;;;;;;;;7.80;62.50;;;6.29;64.14;95817.66;4991081;28;20388;-66
2022/02/18 01:04:54;;;;;;;;;;;7.80;62.70;;;6.27;63.81;95823.03;4986229;28;19918;-66
2022/02/18 01:07:20;;;;;;;;;;;7.80;62.80;;;6.24;64.19;95812.13;5011971;28;19926;-63
2022/02/18 01:09:45;;;;;;;;;;;7.70;63.20;;;6.21;64.00;95812.47;5009056;28;19926;-64
2022/02/18 01:12:11;;;;;;;;;;;7.70;63.40;;;6.20;64.21;95803.00;4991532;28;19925;-64
2022/02/18 01:14:37;;;;;;;;;;;7.70;63.50;;;6.17;64.30;95811.19;4969886;28;20377;-64
2022/02/18 01:17:03;;;;;;;;;;;7.60;63.70;;;6.14;64.22;95815.75;4994468;28;19921;-64
2022/02/18 01:19:28;;;;;;;;;;;7.70;63.80;;;6.14;64.74;95807.94;4977543;28;20100;-65
2022/02/18 01:21:54;;;;;;;;;;;7.70;64.00;;;6.13;65.82;95801.06;4991376;28;19972;-65
2022/02/18 01:24:19;;;;;;;;;;;7.60;64.50;;;6.12;66.22;95804.69;4996339;28;19932;-64
2022/02/18 01:26:45;;;;;;;;;;;7.60;64.70;;;6.12;65.33;95804.69;4989849;28;20389;-65
2022/02/18 01:29:11;;;;;;;;;;;7.60;64.90;;;6.12;66.34;95809.91;4978383;28;20001;-65
2022/02/18 01:31:37;;;;;;;;;;;7.70;65.20;;;6.10;66.83;95806.59;4978171;28;19922;-65
2022/02/18 01:34:03;;;;;;;;;;;7.60;65.40;;;6.11;66.81;95791.75;4977269;28;19973;-65
2022/02/18 01:36:29;;;;;;;;;;;7.60;65.60;;;6.11;67.36;95787.38;4999123;28;19925;-65
2022/02/18 01:38:54;;;;;;;;;;;7.70;65.60;;;6.10;67.56;95779.69;4980983;28;19922;-65
2022/02/18 01:41:20;;;;;;;;;;;7.60;65.90;;;6.10;67.02;95782.28;5004258;28;19933;-64
2022/02/18 01:43:50;;;;;;;;;;;7.70;65.80;;;6.10;67.29;95787.53;4989017;28;19921;-65
2022/02/18 01:46:16;;;;;;;;;;;7.70;66.00;;;6.13;66.63;95795.03;4990572;28;19928;-65
2022/02/18 01:48:42;;;;;;;;;;;7.80;65.90;;;6.11;67.01;95797.81;4989434;28;19929;-65
2022/02/18 01:51:07;;;;;;;;;;;7.80;66.30;;;6.12;67.45;95806.47;4980602;28;20378;-65
2022/02/18 01:53:33;;;;;;;;;;;7.80;66.40;;;6.13;67.13;95795.03;4977118;28;19930;-64
2022/02/18 01:55:59;;;;;;;;;;;7.80;66.30;;;6.11;68.07;95800.44;4982772;28;19922;-65
2022/02/18 01:58:24;;;;;;;;;;;7.80;66.50;;;6.11;67.12;95802.19;4974364;28;20308;-64
2022/02/18 02:00:52;;;;;;;;;;;7.80;66.80;;;6.07;67.76;95796.50;4982043;28;19968;-65
2022/02/18 02:03:18;;;;;;;;;;;7.70;67.20;;;6.04;68.21;95798.66;4976123;28;20458;-65
2022/02/18 02:05:44;;;;;;;;;;;7.60;67.60;;;5.98;67.08;95794.09;4975780;28;20290;-65
2022/02/18 02:08:11;;;;;;;;;;;7.60;68.10;;;5.95;68.13;95797.88;4976474;28;19929;-65
2022/02/18 02:10:37;;;;;;;;;;;7.40;68.80;;;5.89;68.84;95788.06;4966292;28;19983;-64
2022/02/18 02:13:03;;;;;;;;;;;7.40;69.10;;;5.85;69.77;95781.53;4989857;28;20438;-64
2022/02/18 02:15:29;;;;;;;;;;;7.40;69.40;;;5.83;69.65;95783.50;4967599;28;19959;-65
2022/02/18 02:18:01;;;;;;;;;;;7.30;69.80;;;5.81;70.39;95772.41;4994903;28;19944;-64
2022/02/18 02:20:26;;;;;;;;;;;7.40;69.80;;;5.81;70.69;95769.81;4973010;28;19926;-65
2022/02/18 02:22:52;;;;;;;;;;;7.40;70.00;;;5.80;68.49;95769.00;4978686;28;19971;-64
2022/02/18 02:25:18;;;;;;;;;;;7.40;70.00;;;5.80;71.15;95762.97;4989427;28;19921;-65
2022/02/18 02:27:43;;;;;;;;;;;7.40;70.00;;;5.83;70.10;95757.41;5002531;28;19928;-64
2022/02/18 02:30:10;;;;;;;;;;;7.40;70.30;;;5.83;70.14;95752.19;4997277;28;19927;-64
2022/02/18 02:32:36;;;;;;;;;;;7.40;70.40;;;5.87;70.17;95752.66;4988707;28;19968;-64
2022/02/18 02:35:02;;;;;;;;;;;7.50;70.20;;;5.89;71.16;95740.28;4988832;28;19964;-65
2022/02/18 02:37:27;;;;;;;;;;;7.60;70.10;;;5.92;69.93;95756.44;4981786;28;20397;-64
2022/02/18 02:39:53;;;;;;;;;;;7.50;70.00;;;5.94;71.15;95749.25;4960025;28;19926;-65
2022/02/18 02:42:19;;;;;;;;;;;7.60;70.10;;;5.96;70.94;95747.28;4972889;28;19928;-67
2022/02/18 02:44:44;;;;;;;;;;;7.60;69.90;;;5.97;71.50;95759.34;4989799;28;19928;-67
2022/02/18 02:47:10;;;;;;;;;;;7.60;69.80;;;6.00;71.63;95751.19;4972507;28;19922;-64
2022/02/18 02:49:36;;;;;;;;;;;7.60;69.80;;;6.04;70.23;95760.28;4972992;28;19921;-65
2022/02/18 02:52:01;;;;;;;;;;;7.70;69.60;;;6.08;71.09;95766.81;4979808;28;20317;-64
2022/02/18 02:54:27;;;;;;;;;;;7.70;69.60;;;6.10;71.23;95772.66;4975250;28;19922;-64
2022/02/18 02:56:55;;;;;;;;;;;7.80;69.60;;;6.10;70.30;95774.47;4989027;28;19926;-65
2022/02/18 02:59:20;;;;;;;;;;;7.80;69.40;;;6.14;70.24;95779.19;4989589;28;19975;-64
2022/02/18 03:01:46;;;;;;;;;;;7.90;69.20;;;6.14;70.24;95791.44;4986676;28;19965;-65
2022/02/18 03:04:12;;;;;;;;;;;7.90;69.20;;;6.17;70.75;95796.31;4967476;28;20073;-65
2022/02/18 03:06:38;;;;;;;;;;;7.90;69.40;;;6.18;70.14;95781.47;4972106;28;20439;-65
2022/02/18 03:09:08;;;;;;;;;;;7.90;69.30;;;6.19;70.50;95773.47;5001559;28;19921;-64
2022/02/18 03:11:34;;;;;;;;;;;7.90;69.30;;;6.17;70.63;95787.69;4975590;28;20321;-65
2022/02/18 03:13:59;;;;;;;;;;;7.90;69.40;;;6.19;70.33;95773.47;4943278;28;19928;-64
2022/02/18 03:16:25;;;;;;;;;;;7.90;69.40;;;6.21;70.58;95786.34;4975277;28;19921;-65
2022/02/18 03:18:50;;;;;;;;;;;7.90;69.50;;;6.20;70.83;95782.13;4976177;28;19921;-65
2022/02/18 03:21:16;;;;;;;;;;;7.90;69.70;;;6.23;69.98;95794.81;4978294;28;19933;-65
2022/02/18 03:23:45;;;;;;;;;;;8.00;69.50;;;6.25;70.69;95800.69;4975300;28;19925;-65
2022/02/18 03:26:15;;;;;;;;;;;8.00;69.50;;;6.25;70.18;95798.09;4992595;28;19925;-65
2022/02/18 03:28:41;;;;;;;;;;;7.90;69.40;;;6.28;70.67;95803.78;4976444;28;19933;-65
2022/02/18 03:31:08;;;;;;;;;;;8.00;69.30;;;6.31;71.25;95792.16;4968965;28;19925;-66
2022/02/18 03:33:38;;;;;;;;;;;8.00;69.40;;;6.33;70.35;95769.31;5006764;28;20286;-65
2022/02/18 03:36:04;;;;;;;;;;;8.00;69.40;;;6.35;70.53;95756.91;4972239;28;19940;-65
2022/02/18 03:38:29;;;;;;;;;;;8.10;69.50;;;6.40;70.56;95759.81;4996399;28;19926;-65
2022/02/18 03:40:55;;;;;;;;;;;8.10;68.90;;;6.42;70.44;95769.13;5000049;28;20310;-64
2022/02/18 03:43:21;;;;;;;;;;;8.20;68.80;;;6.45;69.79;95750.47;4985589;28;19971;-67
2022/02/18 03:45:46;;;;;;;;;;;8.20;68.50;;;6.49;69.86;95752.75;4979831;28;19921;-65
2022/02/18 03:48:12;;;;;;;;;;;8.10;68.30;;;6.52;69.70;95768.88;4979089;28;19922;-64
2022/02/18 03:50:40;;;;;;;;;;;8.20;68.40;;;6.56;70.18;95793.69;4986949;28;20404;-64
2022/02/18 03:53:05;;;;;;;;;;;8.20;68.40;;;6.59;69.66;95801.22;5009530;28;19934;-65
2022/02/18 03:55:31;;;;;;;;;;;8.20;68.30;;;6.63;69.75;95799.06;4988309;28;19980;-64
2022/02/18 03:57:56;;;;;;;;;;;8.30;68.40;;;6.65;70.23;95790.06;4979067;28;19925;-65
2022/02/18 04:00:22;;;;;;;;;;;8.30;68.40;;;6.69;69.54;95790.53;4985364;28;19933;-64
2022/02/18 04:02:48;;;;;;;;;;;8.30;68.50;;;6.70;69.92;95782.50;5007874;28;19921;-65
2022/02/18 04:05:14;;;;;;;;;;;8.40;68.20;;;6.73;69.88;95774.31;4971777;28;19926;-64
2022/02/18 04:07:39;;;;;;;;;;;8.40;68.10;;;6.75;69.83;95764.50;4979056;28;19926;-65
2022/02/18 04:10:05;;;;;;;;;;;8.50;67.90;;;6.79;69.62;95764.16;4967045;28;19984;-65
2022/02/18 04:12:31;;;;;;;;;;;8.50;67.90;;;6.77;70.10;95764.31;4963862;28;19922;-65
2022/02/18 04:14:56;;;;;;;;;;;8.50;68.10;;;6.80;70.04;95758.78;4962634;28;20350;-65
2022/02/18 04:17:24;;;;;;;;;;;8.50;68.00;;;6.81;69.50;95764.81;5004401;28;19926;-65
2022/02/18 04:19:49;;;;;;;;;;;8.60;68.00;;;6.81;69.73;95763.00;4981009;28;19947;-66
2022/02/18 04:22:15;;;;;;;;;;;8.50;68.00;;;6.82;69.85;95753.38;5009947;28;19933;-64
2022/02/18 04:24:41;;;;;;;;;;;8.50;67.90;;;6.81;69.69;95744.72;4976043;28;19924;-65
2022/02/18 04:27:06;;;;;;;;;;;8.50;68.00;;;6.82;69.97;95742.91;4991409;28;20042;-65
2022/02/18 04:29:32;;;;;;;;;;;8.50;68.10;;;6.81;69.86;95743.91;4974073;28;20276;-65
2022/02/18 04:31:58;;;;;;;;;;;8.50;68.10;;;6.78;69.37;95749.44;4995663;28;19929;-64
2022/02/18 04:34:23;;;;;;;;;;;8.50;68.30;;;6.80;69.45;95750.94;4978049;28;20394;-64
2022/02/18 04:36:49;;;;;;;;;;;8.40;68.50;;;6.79;70.21;95758.91;5006864;28;19921;-65
2022/02/18 04:39:15;;;;;;;;;;;8.40;68.80;;;6.78;70.63;95757.28;4986676;28;19932;-64
2022/02/18 04:41:42;;;;;;;;;;;8.40;69.00;;;6.76;70.64;95760.91;4978085;28;20309;-67
2022/02/18 04:44:07;;;;;;;;;;;8.40;69.30;;;6.78;70.64;95744.22;5002978;28;20390;-68
2022/02/18 04:46:33;;;;;;;;;;;8.40;69.30;;;6.75;71.24;95740.97;4995945;28;19933;-68
2022/02/18 04:48:59;;;;;;;;;;;8.50;69.30;;;6.79;71.01;95743.25;4970366;28;19940;-66
2022/02/18 04:51:24;;;;;;;;;;;8.50;69.30;;;6.79;71.51;95738.84;5009035;28;19928;-65
2022/02/18 04:53:50;;;;;;;;;;;8.50;69.30;;;6.78;71.41;95733.78;5004942;28;19921;-66
2022/02/18 04:56:16;;;;;;;;;;;8.50;69.40;;;6.78;71.57;95725.94;4973076;28;19922;-65
2022/02/18 04:58:42;;;;;;;;;;;8.50;69.30;;;6.75;70.17;95711.41;4969306;28;19932;-66
2022/02/18 05:01:09;;;;;;;;;;;8.50;69.50;;;6.81;70.96;95715.97;4958286;28;19948;-65
2022/02/18 05:03:35;;;;;;;;;;;8.50;69.30;;;6.79;70.87;95717.09;4974770;28;20448;-66
2022/02/18 05:06:02;;;;;;;;;;;8.50;69.30;;;6.84;70.68;95720.03;4974708;28;19921;-66
2022/02/18 05:08:28;;;;;;;;;;;8.50;69.10;;;6.84;71.18;95712.19;4975441;28;19961;-65
2022/02/18 05:10:54;;;;;;;;;;;8.60;69.20;;;6.85;71.31;95713.81;4974565;28;20174;-67
2022/02/18 05:13:19;;;;;;;;;;;8.60;69.20;;;6.87;70.49;95711.84;4974515;28;20386;-65
2022/02/18 05:15:45;;;;;;;;;;;8.60;69.00;;;6.85;70.93;95712.00;4974263;28;19976;-66
2022/02/18 05:18:11;;;;;;;;;;;8.60;68.90;;;6.89;70.55;95704.63;4975886;28;19922;-65
2022/02/18 05:20:36;;;;;;;;;;;8.60;68.80;;;6.89;71.36;95707.25;4991012;28;19926;-66
2022/02/18 05:23:02;;;;;;;;;;;8.60;68.80;;;6.88;71.17;95695.16;4973355;28;19930;-66
2022/02/18 05:25:28;;;;;;;;;;;8.60;68.50;;;6.92;70.32;95710.31;4969749;28;19928;-65
2022/02/18 05:27:53;;;;;;;;;;;8.60;68.40;;;6.93;70.25;95709.31;4978234;28;20523;-65
2022/02/18 05:30:19;;;;;;;;;;;8.60;68.10;;;6.90;69.86;95708.84;4997469;28;19921;-66
2022/02/18 05:32:45;;;;;;;;;;;8.60;68.00;;;6.92;70.02;95701.66;4960583;28;19952;-65
2022/02/18 05:35:11;;;;;;;;;;;8.60;67.90;;;6.90;70.51;95699.22;4977304;28;20398;-66
2022/02/18 05:37:37;;;;;;;;;;;8.60;68.00;;;6.89;69.95;95702.00;4974216;28;19921;-67
2022/02/18 05:40:03;;;;;;;;;;;8.60;68.00;;;6.86;70.16;95697.13;4997616;28;19933;-66
2022/02/18 05:42:29;;;;;;;;;;;8.60;67.90;;;6.88;70.26;95705.63;4992410;28;20386;-66
2022/02/18 05:44:54;;;;;;;;;;;8.60;68.00;;;6.85;70.94;95703.34;4998767;28;19925;-67
2022/02/18 05:47:20;;;;;;;;;;;8.60;68.20;;;6.81;70.35;95695.06;5007239;28;19925;-65
2022/02/18 05:49:45;;;;;;;;;;;8.50;68.50;;;6.78;70.28;95691.94;4994901;28;19922;-67
2022/02/18 05:52:11;;;;;;;;;;;8.50;68.50;;;6.72;70.02;95678.59;4985991;28;20313;-70
2022/02/18 05:54:37;;;;;;;;;;;8.40;68.60;;;6.71;70.64;95684.81;4989595;28;19921;-69
2022/02/18 05:57:03;;;;;;;;;;;8.40;68.70;;;6.67;70.80;95678.31;4983808;28;19922;-71
2022/02/18 05:59:28;;;;;;;;;;;8.40;69.20;;;6.68;71.13;95682.56;4958901;28;19922;-66
2022/02/18 06:01:54;;;;;;;;;;;8.40;69.00;;;6.65;70.07;95679.47;4977226;28;20322;-65
2022/02/18 06:04:20;;;;;;;;;;;8.30;69.00;;;6.63;71.12;95677.06;4985041;28;19921;-64
2022/02/18 06:06:46;;;;;;;;;;;8.20;69.30;;;6.60;70.72;95687.84;5007023;28;19979;-63
2022/02/18 06:09:11;;;;;;;;;;;8.20;69.70;;;6.58;70.95;95684.59;4983620;28;19932;-67
2022/02/18 06:11:37;;;;;;;;;;;8.20;69.80;;;6.55;71.38;95686.72;4990140;28;20324;-69
2022/02/18 06:14:03;;;;;;;;;;;8.10;70.00;;;6.53;71.39;95692.13;4971006;28;20515;-70
2022/02/18 06:16:29;;;;;;;;;;;8.10;70.00;;;6.52;71.42;95700.94;4967374;28;19928;-67
2022/02/18 06:18:55;;;;;;;;;;;8.10;70.50;;;6.53;72.39;95701.75;4978074;28;20017;-65
2022/02/18 06:21:21;;;;;;;;;;;8.20;70.40;;;6.50;71.44;95689.88;4988025;28;19922;-66
2022/02/18 06:23:46;;;;;;;;;;;8.20;70.20;;;6.49;71.93;95695.25;4962343;28;19922;-64
2022/02/18 06:26:12;;;;;;;;;;;8.20;70.30;;;6.50;72.12;95697.69;4975418;28;19979;-64
2022/02/18 06:28:38;;;;;;;;;;;8.20;70.30;;;6.50;71.05;95700.31;4993122;28;19928;-64
2022/02/18 06:31:03;;;;;;;;;;;8.20;70.20;;;6.51;71.70;95698.50;4999206;28;20408;-64
2022/02/18 06:33:29;;;;;;;;;;;8.20;70.30;;;6.51;71.36;95696.72;5006844;28;19922;-67
2022/02/18 06:35:55;;;;;;;;;;;8.20;70.20;;;6.51;71.96;95696.72;4987545;28;20397;-68
2022/02/18 06:38:22;;;;;;;;;;;8.20;70.40;;;6.53;72.40;95697.34;4989018;28;20207;-68
2022/02/18 06:40:48;;;;;;;;;;;8.30;70.30;;;6.56;72.59;95689.16;4985696;28;19930;-67
2022/02/18 06:43:13;;;;;;;;;;;8.30;70.20;;;6.56;72.15;95691.78;5001107;28;19921;-67
2022/02/18 06:45:39;;;;;;;;;;;8.30;70.40;;;6.57;71.55;95690.00;5006677;28;20486;-67
2022/02/18 06:48:05;;;;;;;;;;;8.30;70.40;;;6.59;72.94;95686.22;5005207;28;19986;-63
2022/02/18 06:50:31;;;;;;;;;;;8.40;70.40;;;6.60;72.41;95677.41;5004364;28;19921;-65
2022/02/18 06:52:57;;;;;;;;;;;8.40;70.40;;;6.61;72.06;95679.03;4964261;28;19932;-65
2022/02/18 06:55:24;;;;;;;;;;;8.30;70.50;;;6.63;71.54;95678.84;4955069;28;19922;-64
2022/02/18 06:57:50;;;;;;;;;;;8.40;70.50;;;6.66;71.94;95673.28;4989713;28;20004;-66
2022/02/18 07:00:16;;;;;;;;;;;8.40;70.60;;;6.68;71.69;95668.69;4988939;28;19987;-65
2022/02/18 07:02:42;;;;;;;;;;;8.40;70.60;;;6.69;72.61;95665.88;4982249;28;19929;-66
2022/02/18 07:05:08;;;;;;;;;;;8.50;70.30;;;6.74;72.14;95660.13;4959930;28;19926;-63
2022/02/18 07:07:34;;;;;;;;;;;8.60;70.10;;;6.76;71.83;95655.53;4971961;28;19953;-65
2022/02/18 07:10:01;;;;;;;;;;;8.60;70.00;;;6.81;71.30;95650.63;4987227;28;19965;-68
2022/02/18 07:12:27;;;;;;;;;;;8.60;69.80;;;6.86;72.24;95655.31;4988693;28;19974;-69
2022/02/18 07:14:54;;;;;;;;;;;8.70;69.80;;;6.89;72.32;95655.75;4982485;28;19928;-66
2022/02/18 07:17:21;;;;;;;;;;;8.70;69.90;;;6.92;72.07;95649.38;4988613;28;19921;-66
2022/02/18 07:19:47;;;;;;;;;;;8.70;69.60;;;6.95;72.16;95649.81;4959095;28;19941;-67
2022/02/18 07:22:13;;;;;;;;;;;8.80;69.50;;;6.97;72.28;95649.63;4993846;28;19921;-66
2022/02/18 07:24:39;;;;;;;;;;;8.80;69.50;;;7.00;72.25;95639.63;4987091;28;20385;-67
2022/02/18 07:27:04;;;;;;;;;;;8.90;69.30;;;7.04;72.35;95637.50;4981589;28;20024;-67
2022/02/18 07:29:30;;;;;;;;;;;9.00;69.20;;;7.07;71.86;95642.38;4992079;28;20301;-68
2022/02/18 07:31:56;;;;;;;;;;;9.00;68.80;;;7.11;72.04;95638.41;4957890;28;19957;-67
2022/02/18 07:34:21;;;;;;;;;;;9.10;68.60;;;7.14;71.97;95630.19;4979183;28;19926;-70
2022/02/18 07:36:47;;;;;;;;;;;9.10;68.50;;;7.17;72.16;95618.56;4979970;28;19921;-70
2022/02/18 07:39:12;;;;;;;;;;;9.20;68.40;;;7.22;71.90;95624.06;4976715;28;19925;-67
2022/02/18 07:41:38;;;;;;;;;;;9.20;68.30;;;7.25;71.92;95621.91;4990924;28;19967;-66
2022/02/18 07:44:04;;;;;;;;;;;9.30;68.30;;;7.30;72.40;95616.16;4998073;28;20368;-67
2022/02/18 07:46:30;;;;;;;;;;;9.30;68.50;;;7.33;71.97;95613.97;5005660;28;19922;-65
2022/02/18 07:48:55;;;;;;;;;;;9.40;68.10;;;7.38;72.16;95601.16;4995312;28;19926;-65
2022/02/18 07:51:21;;;;;;;;;;;9.40;68.20;;;7.44;72.43;95604.03;4954951;28;19928;-65
2022/02/18 07:53:47;;;;;;;;;;;9.50;68.60;;;7.47;72.75;95601.06;4988626;28;20006;-66
2022/02/18 07:56:12;;;;;;;;;;;9.60;68.80;;;7.53;72.98;95608.19;4954589;28;19921;-66
2022/02/18 07:58:38;;;;;;;;;;;9.60;68.90;;;7.52;72.56;95588.25;4987855;28;19925;-66
2022/02/18 08:01:04;;;;;;;;;;;9.50;68.90;;;7.54;72.59;95584.47;4971667;28;19926;-68
2022/02/18 08:03:29;;;;;;;;;;;9.50;68.90;;;7.57;72.75;95575.44;4955310;28;19928;-67
2022/02/18 08:05:58;;;;;;;;;;;9.60;68.80;;;7.61;72.55;95574.06;4972945;28;19926;-66
2022/02/18 08:08:24;;;;;;;;;;;9.60;68.70;;;7.64;72.49;95578.94;4972158;28;19928;-66
2022/02/18 08:10:51;;;;;;;;;;;9.60;68.80;;;7.65;72.60;95570.88;4995712;28;19926;-66
2022/02/18 08:13:16;;;;;;;;;;;9.60;68.70;;;7.66;72.62;95564.66;4979736;28;19926;-63
2022/02/18 08:15:42;;;;;;;;;;;9.60;68.70;;;7.69;72.20;95563.47;4971905;28;20046;-65
2022/02/18 08:18:08;;;;;;;;;;;9.60;68.80;;;7.70;72.53;95554.66;4973039;28;19929;-67
2022/02/18 08:20:33;;;;;;;;;;;9.60;68.80;;;7.73;73.25;95553.47;4982141;28;20304;-66
2022/02/18 08:22:59;;;;;;;;;;;9.60;69.00;;;7.75;72.29;95543.63;5004676;28;19970;-68
2022/02/18 08:25:25;;;;;;;;;;;9.70;68.60;;;7.76;72.56;95543.44;4991416;28;19992;-66
2022/02/18 08:27:50;;;;;;;;;;;9.70;68.60;;;7.78;71.38;95541.44;5004353;28;20382;-65
2022/02/18 08:30:16;;;;;;;;;;;9.70;68.70;;;7.81;72.35;95541.06;4991707;28;19959;-65
2022/02/18 08:32:42;;;;;;;;;;;9.80;68.60;;;7.83;72.06;95538.25;4998578;28;19925;-67
2022/02/18 08:35:08;;;;;;;;;;;9.80;68.30;;;7.84;71.95;95519.75;4995286;28;19990;-68
2022/02/18 08:37:34;;;;;;;;;;;9.80;68.20;;;7.88;71.75;95521.00;4977556;28;20001;-67
2022/02/18 08:39:59;;;;;;;;;;;9.80;68.10;;;7.90;71.13;95511.13;4977712;28;19944;-65
2022/02/18 08:42:25;;;;;;;;;;;9.80;68.00;;;7.92;71.94;95506.56;4977789;28;20016;-66
2022/02/18 08:44:51;;;;;;;;;;;9.80;67.90;;;7.96;71.93;95510.41;4976701;28;19922;-67
2022/02/18 08:47:17;;;;;;;;;;;9.90;68.10;;;7.97;72.36;95506.81;4985678;28;19922;-66
2022/02/18 08:49:43;;;;;;;;;;;10.00;68.00;;;8.03;71.73;95514.91;4960914;28;20290;-65
2022/02/18 08:52:08;;;;;;;;;;;10.00;68.00;;;8.04;72.28;95508.66;4996057;28;19921;-65
2022/02/18 08:54:34;;;;;;;;;;;10.00;68.00;;;8.08;72.07;95504.66;4977244;28;19976;-64
2022/02/18 08:57:00;;;;;;;;;;;10.00;68.20;;;8.11;72.42;95499.03;4995069;28;19925;-65
2022/02/18 08:59:25;;;;;;;;;;;10.10;68.70;;;8.15;72.54;95500.31;4960623;28;20381;-65
2022/02/18 09:01:51;;;;;;;;;;;10.10;68.50;;;8.18;72.58;95494.69;5005737;28;19934;-66
2022/02/18 09:04:17;;;;;;;;;;;10.20;68.90;;;8.23;73.32;95481.84;4982834;28;20403;-67
2022/02/18 09:06:43;;;;;;;;;;;10.20;69.00;;;8.25;72.57;95479.84;4989428;28;19926;-67
2022/02/18 09:09:08;;;;;;;;;;;10.20;68.80;;;8.27;73.28;95473.41;4958716;28;20278;-65
2022/02/18 09:11:34;;;;;;;;;;;10.40;69.20;;;8.33;72.78;95471.00;4976795;28;19928;-64
2022/02/18 09:14:00;;;;;;;;;;;10.30;68.80;;;8.36;nan;95463.63;4995365;28;19925;-63
2022/02/18 09:16:26;;;;;;;;;;;10.40;68.30;;;8.38;72.82;95459.00;4989142;28;19921;-64
2022/02/18 09:18:52;;;;;;;;;;;10.40;68.50;;;8.45;72.66;95454.63;4974102;28;19930;-65
2022/02/18 09:21:18;;;;;;;;;;;10.50;68.10;;;8.52;72.90;95444.19;5001208;28;19949;-64
2022/02/18 09:23:43;;;;;;;;;;;10.70;67.90;;;8.59;72.38;95440.59;4991998;28;19922;-65
2022/02/18 09:26:09;;;;;;;;;;;10.70;67.50;;;8.68;72.00;95433.38;4977366;28;19925;-65
2022/02/18 09:28:35;;;;;;;;;;;10.80;67.80;;;8.72;71.55;95429.38;4976223;28;19922;-66
2022/02/18 09:31:00;;;;;;;;;;;10.80;67.20;;;8.80;71.94;95423.16;4981800;28;19926;-65
2022/02/18 09:33:27;;;;;;;;;;;10.90;67.00;;;8.85;71.92;95421.59;4971768;28;19925;-67
2022/02/18 09:35:53;;;;;;;;;;;10.90;66.90;;;8.92;71.94;95419.00;4970144;28;20008;-65
2022/02/18 09:38:19;;;;;;;;;;;11.00;67.10;;;8.99;71.29;95411.94;4959665;28;19957;-63
2022/02/18 09:40:44;;;;;;;;;;;11.10;66.60;;;9.06;71.78;95412.00;4961871;28;19929;-66
2022/02/18 09:43:10;;;;;;;;;;;11.20;66.20;;;9.13;71.75;95413.63;4993999;28;19921;-64
2022/02/18 09:45:36;;;;;;;;;;;11.30;65.60;;;9.20;70.31;95406.56;4965062;28;19970;-65
2022/02/18 09:48:02;;;;;;;;;;;11.40;65.40;;;9.30;70.26;95408.84;4978697;28;19937;-66
2022/02/18 09:50:27;;;;;;;;;;;11.40;65.10;;;9.34;70.43;95396.13;4967641;28;19929;-66
2022/02/18 09:52:53;;;;;;;;;;;11.40;65.60;;;9.38;70.81;95392.09;4973081;28;19922;-66
2022/02/18 09:55:19;;;;;;;;;;;11.40;66.60;;;9.38;72.05;95381.59;4988708;28;20297;-64
2022/02/18 09:57:44;;;;;;;;;;;11.40;67.50;;;9.37;71.44;95375.53;5000651;28;19921;-64
2022/02/18 10:00:11;;;;;;;;;;;11.30;67.00;;;9.41;71.64;95370.69;4972108;28;19937;-62
2022/02/18 10:02:36;;;;;;;;;;;11.40;66.60;;;9.45;70.52;95371.91;4977350;28;20017;-67
2022/02/18 10:05:06;;;;;;;;;;;11.40;66.10;;;9.47;70.87;95362.03;4988025;28;20553;-64
2022/02/18 10:07:31;;;;;;;;;;;11.50;65.40;;;9.48;69.67;95353.94;4988409;28;20282;-62
2022/02/18 10:09:58;;;;;;;;;;;11.40;65.60;;;9.52;70.56;95355.19;4984230;28;19926;-64
2022/02/18 10:12:38;;;;;;;;;;;11.50;65.40;;;9.58;69.81;95350.13;5004940;28;20009;-66
2022/02/18 10:15:09;;;;;;;;;;;11.60;65.30;;;9.64;70.12;95344.88;4995612;28;20416;-66
2022/02/18 10:17:40;;;;;;;;;;;11.70;65.00;;;9.68;69.68;95346.09;4972587;28;19960;-69
2022/02/18 10:20:28;;;;;;;;;;;11.70;64.20;;;9.77;68.66;95344.09;4978012;28;19989;-67
2022/02/18 10:22:57;;;;;;;;;;;11.80;63.80;;;9.87;69.13;95341.03;4967160;28;20020;-65
2022/02/18 10:25:33;;;;;;;;;;;12.10;63.70;;;9.94;69.34;95320.81;4988394;28;19932;-64
2022/02/18 10:27:59;;;;;;;;;;;12.10;63.20;;;10.00;69.47;95327.91;4973314;28;20388;-65
2022/02/18 10:30:26;;;;;;;;;;;12.20;63.40;;;10.04;69.67;95318.59;4976300;28;19922;-66
2022/02/18 10:32:52;;;;;;;;;;;12.20;63.30;;;10.10;68.44;95313.31;4952931;28;19932;-62
2022/02/18 10:35:20;;;;;;;;;;;12.10;63.00;;;10.13;68.47;95304.22;4992224;28;20069;-62
2022/02/18 10:37:54;;;;;;;;;;;12.20;62.60;;;10.20;67.88;95306.88;4984517;28;19976;-66
2022/02/18 10:40:20;;;;;;;;;;;12.30;62.40;;;10.22;68.72;95305.66;4982240;28;19937;-63
2022/02/18 10:42:46;;;;;;;;;;;12.30;62.30;;;10.28;68.14;95293.53;4972972;28;20251;-65
2022/02/18 10:45:18;;;;;;;;;;;12.40;62.60;;;10.31;67.96;95287.84;5001335;28;20400;-68
2022/02/18 10:47:44;;;;;;;;;;;12.40;61.90;;;10.36;67.00;95291.47;4989343;28;20349;-65
2022/02/18 10:50:28;;;;;;;;;;;12.50;61.50;;;10.46;67.39;95279.72;5005060;28;19921;-64
2022/02/18 10:53:16;;;;;;;;;;;12.70;61.20;;;10.56;67.69;95264.28;4980316;28;19926;-64
2022/02/18 10:55:52;;;;;;;;;;;12.80;60.60;;;10.62;66.96;95248.47;4989381;28;20012;-70
2022/02/18 10:58:36;;;;;;;;;;;12.90;60.40;;;10.72;67.32;95253.31;4971550;28;19929;-68
2022/02/18 11:01:02;;;;;;;;;;;13.20;59.70;;;10.90;67.18;95240.25;4990122;28;19922;-68
2022/02/18 11:03:28;;;;;;;;;;;13.60;59.20;;;11.07;66.18;95239.72;5005001;28;20365;-68
2022/02/18 11:05:53;;;;;;;;;;;13.90;58.60;;;11.26;65.04;95234.31;4972095;28;19926;-63
2022/02/18 11:08:29;;;;;;;;;;;14.00;56.80;;;11.50;65.37;95224.81;4987160;28;20363;-60
2022/02/18 11:10:55;;;;;;;;;;;14.40;56.00;;;11.66;64.94;95224.28;4990378;28;20481;-63
2022/02/18 11:13:21;;;;;;;;;;;14.30;55.70;;;11.79;64.41;95212.03;4975624;28;19929;-61
2022/02/18 11:15:47;;;;;;;;;;;14.30;56.10;;;11.85;64.40;95200.63;4979892;28;19922;-62
2022/02/18 11:18:12;;;;;;;;;;;14.20;56.00;;;11.88;63.67;95198.34;4975746;28;19930;-63
2022/02/18 11:20:38;;;;;;;;;;;14.20;56.10;;;11.93;63.67;95193.22;4974878;28;19922;-62
2022/02/18 11:23:04;;;;;;;;;;;14.10;56.20;;;11.96;63.51;95187.50;4974666;28;19925;-63
2022/02/18 11:25:29;;;;;;;;;;;14.10;56.50;;;11.94;63.81;95188.75;4977526;28;19943;-63
2022/02/18 11:27:55;;;;;;;;;;;14.10;56.50;;;11.91;63.72;95181.28;4972299;28;19925;-64